Time;durP1;ratioP1;P1;durP2;ratioP2;P2;SDS_P1;SDS_P2;PMS_P1;PMS_P2;Temp;Humidity;BMP_temperature;BMP_pressure;BME280_temperature;BME280_humidity;BME280_pressure;Samples;Min_cycle;Max_cycle;Signal;HPM_P1;HPM_P2
2022/09/18 00:01:44;;;;;;;8.48;2.00;;;;;;;13.18;77.74;101553.81;4996366;28;20037;-86
2022/09/18 00:04:13;;;;;;;5.93;1.90;;;;;;;13.15;78.27;101561.75;5013990;28;20030;-86
2022/09/18 00:06:41;;;;;;;5.38;2.08;;;;;;;13.15;78.44;101570.59;5013914;28;20037;-86
2022/09/18 00:09:17;;;;;;;5.38;1.83;;;;;;;13.15;78.44;101551.13;5013651;28;20056;-88
2022/09/18 00:11:45;;;;;;;8.25;2.03;;;;;;;13.13;78.28;101552.88;5014006;28;20095;-88
2022/09/18 00:14:19;;;;;;;5.78;1.98;;;;;;;13.02;79.18;101548.34;5012788;28;20026;-87
2022/09/18 00:16:44;;;;;;;5.63;2.10;;;;;;;12.99;79.62;101542.97;5013625;28;20030;-88
2022/09/18 00:19:10;;;;;;;7.85;2.05;;;;;;;13.02;79.43;101542.13;4980951;28;20083;-88
2022/09/18 00:21:41;;;;;;;7.00;2.20;;;;;;;12.95;79.78;101541.16;4996443;28;20502;-88
2022/09/18 00:24:06;;;;;;;7.40;2.70;;;;;;;12.98;79.86;101550.94;4996194;28;20046;-88
2022/09/18 00:26:33;;;;;;;6.47;2.30;;;;;;;12.98;80.32;101549.16;4995868;28;20581;-88
2022/09/18 00:28:58;;;;;;;6.88;2.17;;;;;;;12.93;80.17;101550.88;4996254;28;20057;-88
2022/09/18 00:31:28;;;;;;;5.32;2.10;;;;;;;12.86;80.78;101551.66;4998509;28;20399;-87
2022/09/18 00:33:55;;;;;;;8.02;2.20;;;;;;;12.93;80.62;101544.66;4999951;28;20030;-88
2022/09/18 00:36:21;;;;;;;6.22;2.38;;;;;;;12.90;80.44;101532.25;5017335;28;20038;-87
2022/09/18 00:38:47;;;;;;;5.65;2.40;;;;;;;12.89;80.77;101533.16;5017514;28;20041;-87
2022/09/18 00:41:25;;;;;;;7.18;2.40;;;;;;;12.86;81.19;101538.41;5017508;28;20071;-87
2022/09/18 00:43:52;;;;;;;10.02;2.65;;;;;;;12.88;80.74;101549.00;5017763;28;20037;-88
2022/09/18 00:46:23;;;;;;;7.13;2.30;;;;;;;12.83;81.30;101545.41;5017067;28;20149;-88
2022/09/18 00:48:58;;;;;;;8.63;2.55;;;;;;;12.85;81.31;101552.53;5000412;28;20034;-87
2022/09/18 00:51:25;;;;;;;8.15;2.58;;;;;;;12.80;81.69;101546.25;5016982;28;20466;-87
2022/09/18 00:54:02;;;;;;;7.47;2.40;;;;;;;12.83;81.51;101538.34;5000019;28;20164;-87
2022/09/18 00:56:28;;;;;;;5.38;2.00;;;;;;;12.83;81.49;101537.47;5017024;28;20052;-87
2022/09/18 00:58:54;;;;;;;5.45;2.08;;;;;;;12.81;81.32;101540.13;5017129;28;20525;-87
2022/09/18 01:01:19;;;;;;;6.68;2.10;;;;;;;12.86;81.86;101550.78;4968084;28;20040;-87
2022/09/18 01:03:45;;;;;;;6.63;2.03;;;;;;;12.92;81.46;101557.03;4999242;28;20037;-87
2022/09/18 01:06:15;;;;;;;6.03;2.17;;;;;;;12.94;81.28;101555.31;4999183;28;20382;-87
2022/09/18 01:09:03;;;;;;;6.57;2.20;;;;;;;12.96;81.06;101556.19;5017552;28;20041;-88
2022/09/18 01:11:45;;;;;;;7.75;2.30;;;;;;;12.93;81.31;101552.63;4999515;28;20036;-88
2022/09/18 01:14:35;;;;;;;6.57;2.20;;;;;;;12.97;81.03;101554.44;4999571;28;20113;-87
2022/09/18 01:17:31;;;;;;;7.28;2.10;;;;;;;12.94;81.26;101560.63;5017356;28;20129;-88
2022/09/18 01:20:28;;;;;;;8.30;2.28;;;;;;;12.91;81.05;101565.88;4999951;28;20030;-89
2022/09/18 01:23:18;;;;;;;3.70;1.90;;;;;;;12.94;81.12;101560.63;5016750;28;20034;-89
2022/09/18 01:26:14;;;;;;;5.75;2.00;;;;;;;12.96;81.23;101556.19;5016664;28;20049;-88
2022/09/18 01:29:15;;;;;;;7.43;2.10;;;;;;;12.91;81.45;101549.06;5016872;28;20141;-88
2022/09/18 01:31:49;;;;;;;5.28;2.13;;;;;;;12.87;81.53;101545.47;4978735;28;20042;-87
2022/09/18 01:34:36;;;;;;;7.93;2.40;;;;;;;12.78;82.20;101554.22;4999173;28;20033;-86
2022/09/18 01:37:26;;;;;;;7.43;2.20;;;;;;;12.75;81.96;101548.84;5016664;28;20034;-86
2022/09/18 01:40:02;;;;;;;7.50;2.70;;;;;;;12.71;82.52;101546.16;5016077;28;20413;-86
2022/09/18 01:42:29;;;;;;;3.70;1.92;;;;;;;12.69;82.09;101532.88;5015808;28;20101;-85
2022/09/18 01:44:59;;;;;;;4.97;1.85;;;;;;;12.69;82.42;101538.19;4982893;28;20443;-86
2022/09/18 01:47:31;;;;;;;8.75;2.00;;;;;;;12.68;82.25;101541.72;4998497;28;20029;-86
2022/09/18 01:49:59;;;;;;;6.40;2.08;;;;;;;12.74;81.96;101544.44;5016208;28;20057;-85
2022/09/18 01:52:31;;;;;;;5.85;2.10;;;;;;;12.75;81.85;101538.25;5016022;28;20092;-85
2022/09/18 01:54:59;;;;;;;4.97;2.03;;;;;;;12.77;81.85;101536.53;5016377;28;20061;-86
2022/09/18 01:57:38;;;;;;;6.50;1.95;;;;;;;12.81;81.75;101531.25;5015753;28;20417;-86
2022/09/18 02:00:08;;;;;;;5.78;2.00;;;;;;;12.81;81.68;101531.25;5015975;28;20045;-85
2022/09/18 02:02:42;;;;;;;6.55;2.10;;;;;;;12.85;81.49;101527.75;5015712;28;20034;-86
2022/09/18 02:05:13;;;;;;;7.38;2.20;;;;;;;12.81;81.48;101524.19;4998610;28;20034;-86
2022/09/18 02:07:50;;;;;;;9.95;2.60;;;;;;;12.74;82.45;101525.88;5016151;28;20029;-86
2022/09/18 02:10:18;;;;;;;4.63;2.45;;;;;;;12.76;82.21;101534.75;5016049;28;20355;-86
2022/09/18 02:12:46;;;;;;;8.20;2.50;;;;;;;12.73;82.48;101529.41;5015384;28;20462;-86
2022/09/18 02:15:13;;;;;;;9.25;2.70;;;;;;;12.70;82.73;101529.34;4998238;28;20525;-86
2022/09/18 02:17:52;;;;;;;8.02;2.70;;;;;;;12.70;83.44;101531.13;4998197;28;20038;-86
2022/09/18 02:20:25;;;;;;;7.43;2.70;;;;;;;12.69;83.24;101524.03;5015647;28;20470;-86
2022/09/18 02:22:54;;;;;;;6.75;2.53;;;;;;;12.64;83.46;101517.78;5015622;28;20033;-87
2022/09/18 02:25:28;;;;;;;6.85;2.47;;;;;;;12.66;83.60;101519.56;4998225;28;20379;-87
2022/09/18 02:27:54;;;;;;;7.18;2.60;;;;;;;12.70;83.61;101509.91;5015765;28;20068;-86
2022/09/18 02:30:20;;;;;;;6.03;2.72;;;;;;;12.68;83.63;101511.66;4997845;28;20042;-86
2022/09/18 02:32:46;;;;;;;7.03;2.50;;;;;;;12.69;83.51;101514.31;5015310;28;20026;-86
2022/09/18 02:35:12;;;;;;;6.40;2.50;;;;;;;12.69;83.70;101505.47;4997945;28;20463;-87
2022/09/18 02:37:38;;;;;;;7.60;2.70;;;;;;;12.73;83.86;101510.84;4981710;28;20493;-87
2022/09/18 02:40:08;;;;;;;8.40;2.60;;;;;;;12.73;83.76;101502.88;5015186;28;20037;-86
2022/09/18 02:42:49;;;;;;;4.80;2.42;;;;;;;12.72;84.10;101502.88;5013900;28;20036;-87
2022/09/18 02:45:33;;;;;;;7.35;2.40;;;;;;;12.64;83.77;101500.13;4997537;28;20065;-86
2022/09/18 02:48:20;;;;;;;3.92;2.33;;;;;;;12.58;84.45;101502.66;4997426;28;20033;-87
2022/09/18 02:51:04;;;;;;;10.05;2.58;;;;;;;12.59;84.27;101507.13;4997445;28;20040;-86
2022/09/18 02:53:40;;;;;;;7.38;2.78;;;;;;;12.59;84.54;101504.47;4996892;28;20029;-87
2022/09/18 02:56:23;;;;;;;4.35;2.35;;;;;;;12.62;84.14;101498.31;5015207;28;20026;-86
2022/09/18 02:58:54;;;;;;;6.38;2.55;;;;;;;12.63;84.58;101513.34;4998132;28;20347;-86
2022/09/18 03:01:22;;;;;;;5.88;2.50;;;;;;;12.61;84.84;101500.06;5014682;28;20471;-87
2022/09/18 03:03:47;;;;;;;7.75;2.33;;;;;;;12.66;84.15;101508.06;4997259;28;20061;-87
2022/09/18 03:06:13;;;;;;;9.02;2.35;;;;;;;12.64;84.45;101502.78;5015068;28;20037;-87
2022/09/18 03:08:39;;;;;;;8.35;2.45;;;;;;;12.64;84.19;101500.13;5014811;28;20034;-87
2022/09/18 03:11:04;;;;;;;6.65;2.20;;;;;;;12.67;84.40;101497.47;5014631;28;20088;-87
2022/09/18 03:13:30;;;;;;;6.35;2.17;;;;;;;12.65;84.31;101493.94;5014721;28;20068;-86
2022/09/18 03:15:56;;;;;;;7.43;2.33;;;;;;;12.62;84.52;101487.69;4997469;28;20481;-87
2022/09/18 03:18:22;;;;;;;7.32;2.30;;;;;;;12.65;84.41;101495.69;5014879;28;20378;-87
2022/09/18 03:20:48;;;;;;;5.60;2.28;;;;;;;12.63;84.79;101497.44;5014798;28;20042;-86
2022/09/18 03:23:13;;;;;;;4.97;2.28;;;;;;;12.60;84.85;101489.47;4997144;28;20045;-86
2022/09/18 03:25:38;;;;;;;5.68;1.98;;;;;;;12.62;84.90;101488.59;4997532;28;20382;-86
2022/09/18 03:28:04;;;;;;;9.75;2.45;;;;;;;12.58;85.72;101486.75;4980675;28;20121;-87
2022/09/18 03:30:32;;;;;;;6.85;2.22;;;;;;;12.53;85.01;101480.53;4996885;28;20080;-86
2022/09/18 03:32:57;;;;;;;6.18;2.20;;;;;;;12.56;85.46;101482.34;4997593;28;20037;-86
2022/09/18 03:35:25;;;;;;;9.20;2.30;;;;;;;12.54;85.47;101484.94;4980666;28;20034;-86
2022/09/18 03:37:51;;;;;;;7.38;2.08;;;;;;;12.52;85.83;101476.97;4981084;28;20045;-86
2022/09/18 03:40:16;;;;;;;5.28;2.08;;;;;;;12.53;85.87;101483.16;5014227;28;20030;-86
2022/09/18 03:42:43;;;;;;;7.25;2.00;;;;;;;12.55;85.45;101473.50;4980667;28;20045;-86
2022/09/18 03:45:09;;;;;;;6.95;2.20;;;;;;;12.54;85.43;101475.22;4996620;28;20026;-86
2022/09/18 03:47:35;;;;;;;6.68;2.00;;;;;;;12.51;85.48;101469.91;5013911;28;20033;-86
2022/09/18 03:50:01;;;;;;;6.57;2.25;;;;;;;12.52;85.30;101474.31;4980392;28;20092;-85
2022/09/18 03:52:26;;;;;;;9.13;2.10;;;;;;;12.57;85.49;101473.50;4980694;28;20034;-86
2022/09/18 03:54:53;;;;;;;5.93;1.92;;;;;;;12.57;84.99;101462.91;4981184;28;20029;-86
2022/09/18 03:57:19;;;;;;;5.82;1.80;;;;;;;12.59;85.30;101477.97;4996959;28;20030;-86
2022/09/18 03:59:44;;;;;;;6.80;2.08;;;;;;;12.53;85.15;101465.50;4980370;28;20077;-86
2022/09/18 04:02:09;;;;;;;6.38;1.80;;;;;;;12.51;85.02;101459.31;4996732;28;20053;-86
2022/09/18 04:04:35;;;;;;;6.43;1.92;;;;;;;12.56;84.71;101461.13;4979816;28;20406;-86
2022/09/18 04:07:00;;;;;;;5.95;1.90;;;;;;;12.57;84.88;101458.47;4996438;28;20477;-86
2022/09/18 04:09:26;;;;;;;5.28;1.88;;;;;;;12.57;84.44;101468.19;4980991;28;20034;-86
2022/09/18 04:11:53;;;;;;;5.90;1.85;;;;;;;12.59;84.46;101467.34;4996379;28;20131;-86
2022/09/18 04:14:19;;;;;;;5.55;1.58;;;;;;;12.52;84.76;101465.50;4996525;28;20042;-86
2022/09/18 04:16:44;;;;;;;6.28;1.85;;;;;;;12.56;84.56;101466.44;4980675;28;20470;-87
2022/09/18 04:19:20;;;;;;;6.80;1.70;;;;;;;12.59;84.46;101469.09;4980150;28;20034;-86
2022/09/18 04:21:45;;;;;;;5.20;1.65;;;;;;;12.61;84.68;101468.25;5014497;28;20038;-86
2022/09/18 04:24:10;;;;;;;6.20;1.83;;;;;;;12.60;84.72;101461.19;4980228;28;20061;-87
2022/09/18 04:26:36;;;;;;;5.95;1.67;;;;;;;12.67;84.28;101467.44;4996428;28;20521;-87
2022/09/18 04:29:02;;;;;;;5.50;1.77;;;;;;;12.66;84.48;101465.66;4996650;28;20434;-86
2022/09/18 04:31:28;;;;;;;11.05;2.25;;;;;;;12.64;84.33;101468.28;4996889;28;20110;-87
2022/09/18 04:33:55;;;;;;;7.78;1.98;;;;;;;12.53;84.89;101464.63;5013997;28;20121;-87
2022/09/18 04:36:21;;;;;;;5.78;1.80;;;;;;;12.46;85.12;101468.03;4996132;28;20038;-86
2022/09/18 04:38:46;;;;;;;5.95;1.83;;;;;;;12.42;85.37;101474.16;4997114;28;20061;-86
2022/09/18 04:41:12;;;;;;;4.03;1.50;;;;;;;12.45;85.39;101472.47;4980361;28;20069;-86
2022/09/18 04:43:37;;;;;;;3.55;1.52;;;;;;;12.46;85.04;101476.00;5014250;28;20054;-87
2022/09/18 04:46:03;;;;;;;6.28;2.00;;;;;;;12.41;85.16;101468.00;5013656;28;20164;-87
2022/09/18 04:48:28;;;;;;;2.95;1.42;;;;;;;12.47;84.86;101475.16;4980381;28;20034;-87
2022/09/18 04:50:54;;;;;;;5.70;1.60;;;;;;;12.45;84.67;101472.47;5014361;28;20041;-87
2022/09/18 04:53:19;;;;;;;6.03;1.80;;;;;;;12.40;85.37;101470.63;4980874;28;20034;-87
2022/09/18 04:55:46;;;;;;;5.00;1.73;;;;;;;12.36;85.67;101471.47;4996692;28;20363;-87
2022/09/18 04:58:13;;;;;;;6.18;1.70;;;;;;;12.31;85.57;101467.84;5013762;28;20436;-87
2022/09/18 05:00:39;;;;;;;5.07;1.85;;;;;;;12.26;85.93;101463.38;5013439;28;20041;-87
2022/09/18 05:03:05;;;;;;;6.90;1.60;;;;;;;12.19;86.04;101453.56;5013610;28;20405;-87
2022/09/18 05:05:33;;;;;;;4.57;1.65;;;;;;;12.26;86.27;101467.78;4996660;28;20045;-86
2022/09/18 05:08:00;;;;;;;7.80;2.03;;;;;;;12.24;85.95;101467.75;5013980;28;20071;-87
2022/09/18 05:10:26;;;;;;;7.00;2.00;;;;;;;12.16;86.08;101457.91;5013442;28;20119;-87
2022/09/18 05:12:51;;;;;;;9.02;1.88;;;;;;;12.23;85.55;101467.75;5013263;28;20042;-86
2022/09/18 05:15:17;;;;;;;9.63;1.90;;;;;;;12.26;86.08;101467.78;4980536;28;20046;-86
2022/09/18 05:17:43;;;;;;;8.35;2.00;;;;;;;12.22;85.95;101473.91;5015452;28;20042;-86
2022/09/18 05:20:09;;;;;;;8.65;2.03;;;;;;;12.18;86.29;101465.03;5017113;28;20029;-86
2022/09/18 05:22:35;;;;;;;5.45;1.80;;;;;;;12.19;86.36;101469.47;4999311;28;20029;-87
2022/09/18 05:25:01;;;;;;;3.97;1.60;;;;;;;12.22;85.97;101465.97;4982854;28;20054;-87
2022/09/18 05:27:27;;;;;;;7.65;1.70;;;;;;;12.24;86.08;101472.16;5015394;28;20042;-86
2022/09/18 05:29:52;;;;;;;6.63;2.00;;;;;;;12.21;86.41;101473.03;5016688;28;20056;-85
2022/09/18 05:32:19;;;;;;;6.13;1.90;;;;;;;12.21;85.99;101480.97;4983232;28;20037;-85
2022/09/18 05:34:48;;;;;;;5.43;1.70;;;;;;;12.19;86.02;101474.75;4983782;28;20053;-85
2022/09/18 05:37:15;;;;;;;3.78;1.55;;;;;;;12.21;85.94;101475.69;5016485;28;20030;-86
2022/09/18 05:39:41;;;;;;;5.22;1.80;;;;;;;12.23;85.79;101478.34;5016437;28;20026;-85
2022/09/18 05:42:06;;;;;;;7.15;1.95;;;;;;;12.20;86.16;101483.59;5016681;28;20056;-85
2022/09/18 05:44:32;;;;;;;6.82;1.85;;;;;;;12.26;86.16;101481.06;4999301;28;20468;-85
2022/09/18 05:46:57;;;;;;;5.38;1.55;;;;;;;12.24;85.96;101480.13;4966410;28;20065;-86
2022/09/18 05:49:22;;;;;;;9.80;1.90;;;;;;;12.21;86.11;101473.03;5016334;28;20066;-85
2022/09/18 05:51:48;;;;;;;6.07;2.00;;;;;;;12.24;86.16;101475.69;4998580;28;20030;-85
2022/09/18 05:54:14;;;;;;;3.72;1.70;;;;;;;12.24;85.65;101475.69;5016073;28;20034;-86
2022/09/18 05:56:39;;;;;;;7.30;1.77;;;;;;;12.22;86.30;101464.22;5016319;28;20061;-86
2022/09/18 05:59:05;;;;;;;5.15;1.70;;;;;;;12.25;86.20;101469.56;4982242;28;20520;-86
2022/09/18 06:01:33;;;;;;;6.65;2.13;;;;;;;12.33;85.92;101474.94;4998520;28;20034;-86
2022/09/18 06:04:01;;;;;;;6.05;1.88;;;;;;;12.40;85.64;101483.88;5015999;28;20038;-85
2022/09/18 06:06:28;;;;;;;5.50;1.67;;;;;;;12.42;85.68;101485.69;5015948;28;20041;-87
2022/09/18 06:08:53;;;;;;;4.93;1.70;;;;;;;12.45;85.83;101491.00;5015905;28;20033;-86
2022/09/18 06:11:19;;;;;;;7.90;2.10;;;;;;;12.48;85.85;101484.88;5016081;28;20116;-87
2022/09/18 06:13:47;;;;;;;5.00;1.73;;;;;;;12.52;85.60;101470.78;5015922;28;20363;-86
2022/09/18 06:16:14;;;;;;;5.82;1.80;;;;;;;12.56;85.13;101479.69;4982414;28;20042;-85
2022/09/18 06:18:39;;;;;;;5.15;1.80;;;;;;;12.59;85.46;101467.34;5015717;28;20034;-86
2022/09/18 06:21:05;;;;;;;3.25;1.50;;;;;;;12.61;84.97;101473.56;5015581;28;20045;-84
2022/09/18 06:23:30;;;;;;;7.40;1.85;;;;;;;12.58;85.30;101477.91;5015597;28;20117;-86
2022/09/18 06:26:04;;;;;;;4.55;1.75;;;;;;;12.59;85.63;101470.00;5015874;28;20437;-86
2022/09/18 06:28:31;;;;;;;5.95;1.77;;;;;;;12.64;85.84;101464.75;5015473;28;20038;-85
2022/09/18 06:30:57;;;;;;;5.85;2.10;;;;;;;12.68;86.06;101467.47;4998072;28;20041;-86
2022/09/18 06:33:23;;;;;;;6.53;2.20;;;;;;;12.75;85.78;101471.06;4998294;28;20099;-86
2022/09/18 06:35:48;;;;;;;6.38;2.08;;;;;;;12.86;85.89;101469.44;4997593;28;20033;-86
2022/09/18 06:38:15;;;;;;;7.72;1.90;;;;;;;12.88;85.78;101467.69;4981781;28;20359;-85
2022/09/18 06:40:48;;;;;;;7.38;1.85;;;;;;;12.89;85.44;101457.94;5015498;28;20038;-85
2022/09/18 06:43:13;;;;;;;9.32;2.03;;;;;;;12.90;85.89;101462.41;5015144;28;20030;-86
2022/09/18 06:45:38;;;;;;;6.88;1.95;;;;;;;12.94;85.76;101462.47;4981588;28;20048;-86
2022/09/18 06:48:04;;;;;;;6.38;2.00;;;;;;;12.97;85.28;101464.22;4997569;28;20093;-86
2022/09/18 06:50:29;;;;;;;7.68;2.30;;;;;;;13.03;85.59;101475.81;4981279;28;20034;-86
2022/09/18 06:53:01;;;;;;;9.68;2.22;;;;;;;13.01;85.56;101476.66;4997728;28;20034;-93
2022/09/18 06:55:28;;;;;;;8.40;2.42;;;;;;;13.03;85.62;101466.97;5015789;28;20026;-94
2022/09/18 06:57:55;;;;;;;6.68;2.05;;;;;;;13.00;85.69;101470.47;4982778;28;20037;-93
2022/09/18 07:00:21;;;;;;;7.15;1.90;;;;;;;13.01;85.20;101456.31;4997803;28;20034;-91
2022/09/18 07:03:02;;;;;;;6.85;2.00;;;;;;;13.06;85.43;101461.72;4999718;28;20041;-94
2022/09/18 07:05:33;;;;;;;4.93;1.90;;;;;;;13.11;85.95;101464.41;5017474;28;20108;-94
2022/09/18 07:08:01;;;;;;;5.70;2.20;;;;;;;13.14;85.71;101467.06;5025730;28;20045;-95
2022/09/18 07:10:29;;;;;;;7.00;1.95;;;;;;;13.19;85.39;101455.66;5010996;28;20030;-94
2022/09/18 07:12:58;;;;;;;4.75;2.00;;;;;;;13.19;84.97;101465.34;5009098;28;20037;-91
2022/09/18 07:15:25;;;;;;;9.50;2.40;;;;;;;13.17;85.66;101460.03;5016941;28;20040;-89
2022/09/18 07:17:51;;;;;;;9.85;2.33;;;;;;;13.20;85.98;101462.72;4996674;28;20037;-87
2022/09/18 07:20:19;;;;;;;7.53;2.30;;;;;;;13.27;86.01;101467.25;5014470;28;20220;-86
2022/09/18 07:22:55;;;;;;;7.22;2.10;;;;;;;13.29;85.74;101454.00;5014056;28;20034;-86
2022/09/18 07:25:21;;;;;;;4.47;1.90;;;;;;;13.34;85.66;101459.34;4996500;28;20449;-85
2022/09/18 07:27:47;;;;;;;7.35;2.20;;;;;;;13.36;85.11;101462.88;5014745;28;20117;-85
2022/09/18 07:30:12;;;;;;;6.25;2.10;;;;;;;13.36;85.65;101463.81;4996835;28;20114;-85
2022/09/18 07:32:37;;;;;;;8.98;2.30;;;;;;;13.35;85.48;101455.81;5014477;28;20022;-87
2022/09/18 07:35:03;;;;;;;8.95;2.45;;;;;;;13.34;84.92;101456.69;5014256;28;20096;-87
2022/09/18 07:37:29;;;;;;;7.03;2.33;;;;;;;13.34;84.85;101460.22;4980391;28;20029;-86
2022/09/18 07:39:54;;;;;;;8.52;2.30;;;;;;;13.33;85.79;101450.50;4996006;28;20470;-88
2022/09/18 07:42:20;;;;;;;6.18;2.20;;;;;;;13.32;85.98;101455.78;5014050;28;20045;-87
2022/09/18 07:44:45;;;;;;;7.93;2.40;;;;;;;13.27;86.33;101446.03;5014572;28;20086;-87
2022/09/18 07:47:11;;;;;;;5.95;2.30;;;;;;;13.36;86.52;101442.56;4996649;28;20129;-88
2022/09/18 07:49:37;;;;;;;7.25;2.50;;;;;;;13.48;86.58;101447.06;5014253;28;20137;-89
2022/09/18 07:52:03;;;;;;;8.20;2.72;;;;;;;13.56;86.84;101439.19;4996434;28;20466;-89
2022/09/18 07:54:30;;;;;;;9.63;2.90;;;;;;;13.59;85.61;101439.22;4980741;28;20041;-89
2022/09/18 07:56:55;;;;;;;6.38;2.40;;;;;;;13.70;85.64;101434.84;4996408;28;20033;-92
2022/09/18 07:59:20;;;;;;;8.48;2.63;;;;;;;13.82;86.11;101442.91;4996528;28;20113;-90
2022/09/18 08:01:46;;;;;;;8.52;2.28;;;;;;;13.96;85.88;101435.94;5014201;28;20069;-89
2022/09/18 08:04:11;;;;;;;8.07;2.28;;;;;;;14.12;84.63;101422.72;5013937;28;20073;-90
2022/09/18 08:06:37;;;;;;;8.73;2.60;;;;;;;14.33;84.80;101429.94;4996739;28;20041;-91
2022/09/18 08:09:02;;;;;;;8.43;2.50;;;;;;;14.33;83.27;101430.81;5014225;28;20455;-93
2022/09/18 08:11:27;;;;;;;7.75;2.30;;;;;;;14.33;82.85;101444.09;4996336;28;20482;-92
2022/09/18 08:13:53;;;;;;;9.48;2.50;;;;;;;14.28;83.36;101430.78;5013866;28;20073;-93
2022/09/18 08:16:20;;;;;;;5.20;2.15;;;;;;;14.30;83.28;101438.75;5013611;28;20041;-92
2022/09/18 08:18:46;;;;;;;6.50;2.15;;;;;;;14.35;83.32;101444.13;4996505;28;20026;-92
2022/09/18 08:21:11;;;;;;;5.47;2.15;;;;;;;14.35;84.01;101441.47;4997365;28;20030;-92
2022/09/18 08:23:36;;;;;;;8.45;2.30;;;;;;;14.30;83.73;101441.41;5014033;28;20046;-91
2022/09/18 08:26:03;;;;;;;5.97;2.15;;;;;;;14.32;84.40;101445.00;5013981;28;20069;-91
2022/09/18 08:28:29;;;;;;;7.38;2.42;;;;;;;14.38;84.52;101438.81;5014038;28;20481;-89
2022/09/18 08:30:55;;;;;;;6.50;2.20;;;;;;;14.36;84.53;101437.94;5014108;28;20034;-88
2022/09/18 08:33:21;;;;;;;8.15;2.38;;;;;;;14.34;84.49;101434.34;5013937;28;20037;-89
2022/09/18 08:35:46;;;;;;;6.25;2.28;;;;;;;14.35;84.33;101445.00;5014148;28;20038;-89
2022/09/18 08:38:11;;;;;;;11.93;2.47;;;;;;;14.41;84.67;101446.81;5013934;28;20032;-89
2022/09/18 08:40:46;;;;;;;8.30;2.50;;;;;;;14.44;84.90;101450.38;5013623;28;20034;-89
2022/09/18 08:43:41;;;;;;;7.55;2.35;;;;;;;14.42;84.17;101449.47;5013293;28;20065;-87
2022/09/18 08:46:14;;;;;;;7.05;2.00;;;;;;;14.45;83.69;101446.81;5013630;28;20548;-84
2022/09/18 08:48:54;;;;;;;5.45;2.10;;;;;;;14.52;83.92;101447.78;5013484;28;20026;-85
2022/09/18 08:51:29;;;;;;;5.90;2.00;;;;;;;14.57;83.63;101435.38;4996816;28;20485;-87
2022/09/18 08:54:09;;;;;;;4.50;1.98;;;;;;;14.62;83.33;101438.06;5017424;28;20111;-87
2022/09/18 08:56:36;;;;;;;3.00;1.73;;;;;;;14.62;83.32;101446.94;5000469;28;20026;-86
2022/09/18 08:59:10;;;;;;;9.95;2.00;;;;;;;14.60;82.23;101447.78;5016833;28;20030;-85
2022/09/18 09:01:57;;;;;;;9.13;2.33;;;;;;;14.58;82.41;101437.16;5017623;28;20037;-84
2022/09/18 09:04:28;;;;;;;7.88;1.73;;;;;;;14.50;80.85;101444.22;5017392;28;20030;-88
2022/09/18 09:07:18;;;;;;;3.53;1.60;;;;;;;14.42;80.75;101444.13;5016772;28;20117;-86
2022/09/18 09:09:49;;;;;;;5.22;1.85;;;;;;;14.35;81.32;101442.34;4999625;28;20423;-85
2022/09/18 09:12:42;;;;;;;5.57;1.98;;;;;;;14.38;81.59;101447.66;5017131;28;20026;-84
2022/09/18 09:15:16;;;;;;;5.03;1.80;;;;;;;14.44;82.46;101450.38;5017106;28;20034;-85
2022/09/18 09:17:53;;;;;;;4.93;2.00;;;;;;;14.49;81.27;101451.31;5017288;28;20417;-85
2022/09/18 09:20:44;;;;;;;4.13;1.90;;;;;;;14.50;81.17;101453.06;4999109;28;20034;-85
2022/09/18 09:23:17;;;;;;;4.93;2.05;;;;;;;14.51;82.12;101449.53;5009235;28;20438;-84
2022/09/18 09:25:42;;;;;;;5.15;1.83;;;;;;;14.59;82.30;101449.56;5016909;28;20088;-84
2022/09/18 09:28:26;;;;;;;5.63;2.10;;;;;;;14.64;81.94;101445.16;5016480;28;20034;-82
2022/09/18 09:30:58;;;;;;;6.65;2.10;;;;;;;14.69;81.95;101446.09;5017128;28;20030;-82
2022/09/18 09:33:30;;;;;;;7.25;2.10;;;;;;;14.64;81.42;101449.59;5016744;28;20109;-85
2022/09/18 09:36:02;;;;;;;4.72;1.77;;;;;;;14.54;81.88;101448.66;5016781;28;20060;-88
2022/09/18 09:38:39;;;;;;;7.43;2.10;;;;;;;14.51;82.72;101448.66;5016726;28;20029;-90
2022/09/18 09:41:30;;;;;;;5.72;1.88;;;;;;;14.48;82.78;101446.88;5016378;28;20026;-89
2022/09/18 09:44:19;;;;;;;3.67;1.90;;;;;;;14.52;83.81;101456.66;4999133;28;20065;-89
2022/09/18 09:47:11;;;;;;;4.45;2.03;;;;;;;14.57;82.02;101448.69;4999073;28;20038;-87
2022/09/18 09:49:55;;;;;;;6.40;1.88;;;;;;;14.53;81.79;101429.16;5012695;28;20057;-87
2022/09/18 09:52:25;;;;;;;8.13;1.80;;;;;;;14.52;82.41;101438.03;5016039;28;20030;-87
2022/09/18 09:54:58;;;;;;;5.97;1.90;;;;;;;14.55;82.18;101425.63;4983276;28;20038;-87
2022/09/18 09:57:41;;;;;;;5.03;2.13;;;;;;;14.60;82.10;101423.84;4998851;28;20367;-87
2022/09/18 10:00:16;;;;;;;7.10;1.75;;;;;;;14.68;81.77;101417.69;4998331;28;20049;-90
2022/09/18 10:03:00;;;;;;;5.45;1.75;;;;;;;14.71;80.39;101415.03;4997774;28;20409;-87
2022/09/18 10:05:41;;;;;;;4.85;1.60;;;;;;;14.78;80.97;101413.28;4998350;28;20053;-88
2022/09/18 10:08:16;;;;;;;5.10;1.58;;;;;;;14.86;80.50;101411.53;5014513;28;20041;-87
2022/09/18 10:11:07;;;;;;;6.75;1.52;;;;;;;14.95;79.54;101416.00;5015555;28;20033;-88
2022/09/18 10:13:35;;;;;;;6.30;1.70;;;;;;;14.97;80.34;101401.78;4998372;28;20412;-89
2022/09/18 10:16:14;;;;;;;8.00;1.90;;;;;;;15.01;79.69;101402.69;4998519;28;20407;-87
2022/09/18 10:18:46;;;;;;;5.05;1.85;;;;;;;15.02;80.44;101394.69;4997999;28;20030;-89
2022/09/18 10:21:18;;;;;;;10.57;1.67;;;;;;;15.13;79.84;101397.38;5015286;28;20109;-90
2022/09/18 10:23:51;;;;;;;5.60;1.73;;;;;;;15.18;79.41;101400.94;4998074;28;20046;-91
2022/09/18 10:26:30;;;;;;;6.85;1.92;;;;;;;15.25;79.18;101393.84;5016053;28;20033;-93
2022/09/18 10:28:59;;;;;;;5.90;1.80;;;;;;;15.36;79.33;101408.03;4998355;28;20414;-92
2022/09/18 10:31:58;;;;;;;7.07;1.88;;;;;;;15.45;79.09;101410.69;5014996;28;20042;-87
2022/09/18 10:34:32;;;;;;;4.43;1.90;;;;;;;15.47;78.48;101424.91;4998081;28;20049;-87
2022/09/18 10:36:58;;;;;;;6.15;1.85;;;;;;;15.35;77.17;101408.03;5016170;28;20026;-96
2022/09/18 10:39:36;;;;;;;4.60;2.08;;;;;;;15.43;79.77;101403.59;4999122;28;20048;-92
2022/09/18 10:42:06;;;;;;;7.90;2.00;;;;;;;15.44;79.57;101408.03;5015488;28;20036;-94
2022/09/18 10:44:40;;;;;;;7.03;2.25;;;;;;;15.48;79.26;101410.69;5015458;28;20026;-91
2022/09/18 10:47:06;;;;;;;6.45;2.00;;;;;;;15.56;79.21;101404.47;4981510;28;20492;-90
2022/09/18 10:49:35;;;;;;;5.63;2.10;;;;;;;15.57;77.56;101409.81;5015342;28;20025;-86
2022/09/18 10:52:26;;;;;;;5.78;2.03;;;;;;;15.50;78.12;101413.34;5014785;28;20072;-91
2022/09/18 10:54:58;;;;;;;10.18;2.13;;;;;;;15.34;77.27;101404.50;5014957;28;20026;-87
2022/09/18 10:57:30;;;;;;;6.47;2.20;;;;;;;15.30;78.09;101404.50;5014871;28;20030;-84
2022/09/18 10:59:56;;;;;;;7.60;2.33;;;;;;;15.23;79.51;101391.16;5014861;28;20053;-86
2022/09/18 11:02:25;;;;;;;9.18;2.50;;;;;;;15.18;79.97;101402.72;5015089;28;20064;-86
2022/09/18 11:04:52;;;;;;;6.65;2.78;;;;;;;15.11;81.17;101439.06;4997159;28;20030;-85
2022/09/18 11:07:19;;;;;;;5.63;2.30;;;;;;;14.88;77.38;101430.16;5014748;28;20047;-83
2022/09/18 11:09:45;;;;;;;4.10;1.50;;;;;;;14.73;78.20;101429.25;4997113;28;20121;-88
2022/09/18 11:12:23;;;;;;;4.05;1.33;;;;;;;14.66;77.67;101422.13;4997241;28;20029;-89
2022/09/18 11:15:02;;;;;;;2.35;1.15;;;;;;;14.56;77.51;101420.31;5014078;28;20455;-83
2022/09/18 11:17:34;;;;;;;2.30;1.23;;;;;;;14.42;76.32;101420.22;5014911;28;20048;-88
2022/09/18 11:20:02;;;;;;;3.90;1.40;;;;;;;14.42;78.08;101414.91;5014565;28;20030;-88
2022/09/18 11:22:48;;;;;;;5.05;1.42;;;;;;;14.42;77.41;101430.84;5014543;28;20068;-86
2022/09/18 11:25:19;;;;;;;2.88;1.15;;;;;;;14.43;79.07;101437.06;5014231;28;20076;-83
2022/09/18 11:27:53;;;;;;;4.97;1.60;;;;;;;14.38;78.09;101430.81;5014842;28;20101;-82
2022/09/18 11:30:23;;;;;;;7.60;1.60;;;;;;;14.28;78.23;101435.22;5014454;28;20034;-82
2022/09/18 11:32:53;;;;;;;2.00;1.00;;;;;;;14.34;78.68;101435.25;5014223;28;20455;-81
2022/09/18 11:35:21;;;;;;;2.58;1.10;;;;;;;14.35;79.03;101430.84;5014385;28;20037;-81
2022/09/18 11:37:51;;;;;;;4.03;1.35;;;;;;;14.40;79.19;101435.28;5014193;28;20466;-81
2022/09/18 11:40:44;;;;;;;6.10;1.60;;;;;;;14.43;80.00;101427.34;4996530;28;20026;-82